Time;durP1;ratioP1;P1;durP2;ratioP2;P2;SDS_P1;SDS_P2;PMS_P1;PMS_P2;Temp;Humidity;BMP_temperature;BMP_pressure;BME280_temperature;BME280_humidity;BME280_pressure;Samples;Min_cycle;Max_cycle;Signal;HPM_P1;HPM_P2
2022/04/28 00:00:19;;;;;;;18.15;9.82;;;;;;;15.21;44.83;102280.94;5025001;27;99203;-72
2022/04/28 00:02:47;;;;;;;19.40;10.45;;;;;;;15.33;44.83;102290.34;5019831;28;99249;-71
2022/04/28 00:05:14;;;;;;;15.82;9.38;;;;;;;15.08;45.63;102285.78;5024748;27;97438;-73
2022/04/28 00:07:42;;;;;;;16.75;9.25;;;;;;;15.12;45.75;102290.06;5028751;27;99025;-73
2022/04/28 00:10:10;;;;;;;16.65;10.02;;;;;;;15.19;45.54;102295.22;5026824;27;101104;-72
2022/04/28 00:12:36;;;;;;;16.50;9.55;;;;;;;15.18;45.63;102291.69;5024824;27;96804;-71
2022/04/28 00:15:04;;;;;;;16.05;9.55;;;;;;;15.19;45.42;102296.09;5022089;27;96887;-70
2022/04/28 00:17:31;;;;;;;15.73;10.80;;;;;;;15.45;44.76;102293.50;5025246;27;98969;-72
2022/04/28 00:19:59;;;;;;;21.85;10.00;;;;;;;15.89;43.40;102291.22;5027057;27;99190;-71
2022/04/28 00:22:26;;;;;;;14.25;9.52;;;;;;;15.81;43.37;102295.97;5029715;27;96782;-71
2022/04/28 00:24:53;;;;;;;17.33;10.35;;;;;;;15.60;43.18;102293.97;5023619;27;96803;-72
2022/04/28 00:27:20;;;;;;;15.52;9.75;;;;;;;15.77;43.09;102288.97;5017977;27;98952;-72
2022/04/28 00:29:47;;;;;;;16.83;10.20;;;;;;;15.54;44.02;102295.91;5025623;27;98841;-71
2022/04/28 00:32:13;;;;;;;19.92;9.40;;;;;;;15.40;44.06;102292.78;5029788;27;96783;-71
2022/04/28 00:34:40;;;;;;;21.25;9.98;;;;;;;15.19;44.43;102290.75;5026414;27;96822;-71
2022/04/28 00:37:09;;;;;;;16.92;11.40;;;;;;;15.24;44.69;102290.63;5024573;27;99805;-70
2022/04/28 00:39:36;;;;;;;16.50;10.10;;;;;;;15.42;44.29;102298.06;5023074;28;97601;-71
2022/04/28 00:42:02;;;;;;;17.52;10.13;;;;;;;15.29;45.09;102296.69;5023143;28;96818;-73
2022/04/28 00:44:29;;;;;;;20.35;10.77;;;;;;;15.24;43.99;102291.50;5024985;27;97250;-72
2022/04/28 00:46:56;;;;;;;20.15;10.77;;;;;;;15.22;45.56;102298.69;5005550;28;98867;-67
2022/04/28 00:52:09;;;;;;;18.60;11.02;;;;;;;15.23;45.80;102299.56;5004779;28;96796;-66
2022/04/28 00:54:35;;;;;;;18.02;11.05;;;;;;;15.22;45.72;102292.47;5004790;28;98315;-67
2022/04/28 00:57:04;;;;;;;17.88;11.38;;;;;;;15.02;46.15;102296.59;5006090;28;99083;-67
2022/04/28 00:59:31;;;;;;;17.60;10.98;;;;;;;14.81;46.24;102301.66;5004473;28;98829;-66
2022/04/28 01:01:57;;;;;;;17.15;10.38;;;;;;;15.16;45.58;102305.03;5004409;28;96846;-67
2022/04/28 01:04:24;;;;;;;15.02;10.60;;;;;;;15.40;44.40;102302.56;4998444;28;96974;-67
2022/04/28 01:06:51;;;;;;;17.55;10.25;;;;;;;15.26;44.54;102304.75;5002972;28;98972;-67
2022/04/28 01:09:19;;;;;;;16.83;10.73;;;;;;;15.36;42.44;102304.44;4997988;28;98965;-66
2022/04/28 01:11:45;;;;;;;14.18;10.25;;;;;;;15.39;42.35;102306.13;5002864;28;97142;-65
2022/04/28 01:14:12;;;;;;;15.32;9.93;;;;;;;15.37;42.13;102313.28;4998543;28;98639;-66
2022/04/28 01:16:39;;;;;;;19.35;10.45;;;;;;;15.51;41.60;102309.28;5004132;28;97630;-67
2022/04/28 01:19:05;;;;;;;20.27;10.57;;;;;;;15.62;41.80;102314.31;5005829;28;99663;-67
2022/04/28 01:21:33;;;;;;;17.52;10.60;;;;;;;15.47;43.07;102322.75;5003271;28;96845;-66
2022/04/28 01:24:02;;;;;;;18.00;10.75;;;;;;;15.21;43.25;102315.56;5002541;28;98728;-67
2022/04/28 01:26:29;;;;;;;14.93;10.25;;;;;;;15.18;43.56;102312.97;5006699;28;99140;-67
2022/04/28 01:28:56;;;;;;;16.30;9.88;;;;;;;15.18;43.16;102318.31;4996138;28;99429;-66
2022/04/28 01:31:22;;;;;;;14.98;10.18;;;;;;;15.01;43.63;102313.50;5006234;28;98750;-66
2022/04/28 01:33:48;;;;;;;16.23;10.25;;;;;;;14.77;44.73;102318.66;5002251;28;97587;-67
2022/04/28 01:36:15;;;;;;;22.73;10.98;;;;;;;15.32;43.49;102316.09;5007780;28;98944;-66
2022/04/28 01:38:43;;;;;;;17.95;10.80;;;;;;;15.48;42.34;102317.41;5007836;28;101525;-67
2022/04/28 01:41:10;;;;;;;12.90;9.43;;;;;;;15.30;42.16;102323.25;5005498;28;97242;-66
2022/04/28 01:43:37;;;;;;;16.02;9.82;;;;;;;15.09;42.72;102323.91;5009375;28;98551;-68
2022/04/28 01:46:03;;;;;;;15.75;9.27;;;;;;;15.17;42.68;102316.56;5000276;28;98254;-67
2022/04/28 01:48:30;;;;;;;16.25;9.38;;;;;;;15.36;41.93;102320.41;4999917;28;98805;-67
2022/04/28 01:56:26;;;;;;;15.95;9.10;;;;;;;14.77;42.81;102322.16;5000981;28;98605;-65
2022/04/28 01:58:52;;;;;;;16.17;9.38;;;;;;;14.88;42.71;102325.41;5005479;28;100734;-65
2022/04/28 02:01:19;;;;;;;17.35;9.30;;;;;;;14.73;42.76;102332.03;5002983;28;96793;-65
2022/04/28 02:03:45;;;;;;;18.20;9.25;;;;;;;14.76;42.63;102320.44;5005711;28;96893;-65
2022/04/28 02:06:12;;;;;;;17.42;9.70;;;;;;;14.86;42.42;102331.69;5003186;28;99032;-66
2022/04/28 02:08:39;;;;;;;13.50;8.73;;;;;;;14.80;42.37;102329.19;5006352;28;100903;-64
2022/04/28 02:11:07;;;;;;;15.95;9.85;;;;;;;14.95;42.20;102320.78;5004161;28;97002;-65
2022/04/28 02:13:34;;;;;;;15.35;9.07;;;;;;;15.01;42.83;102324.13;5006938;28;99249;-67
2022/04/28 02:16:00;;;;;;;20.13;9.07;;;;;;;14.99;43.09;102327.75;5003596;28;97704;-66
2022/04/28 02:18:27;;;;;;;12.82;9.10;;;;;;;15.04;42.45;102320.50;5005995;28;98082;-66
2022/04/28 02:20:53;;;;;;;15.80;9.45;;;;;;;15.05;42.54;102319.59;5004673;28;97068;-66
2022/04/28 02:23:20;;;;;;;17.50;10.38;;;;;;;15.13;42.26;102314.91;5012448;28;97339;-66
2022/04/28 02:25:46;;;;;;;14.68;8.65;;;;;;;14.85;42.70;102314.84;4998044;28;99076;-66
2022/04/28 02:28:14;;;;;;;19.58;8.98;;;;;;;14.90;42.62;102320.03;5004738;28;98824;-66
2022/04/28 02:30:40;;;;;;;13.63;9.30;;;;;;;14.54;43.41;102319.25;5004364;28;96843;-65
2022/04/28 02:33:09;;;;;;;17.27;9.75;;;;;;;14.85;42.80;102322.81;5006893;28;96942;-66
2022/04/28 02:35:36;;;;;;;16.33;8.90;;;;;;;14.87;43.25;102317.47;4998715;28;97856;-66
2022/04/28 02:38:03;;;;;;;17.27;8.88;;;;;;;14.50;43.39;102320.28;5003303;28;99197;-67
2022/04/28 02:40:29;;;;;;;13.25;9.40;;;;;;;14.32;44.01;102324.25;5004389;28;97425;-66
2022/04/28 02:42:56;;;;;;;15.70;9.40;;;;;;;14.40;43.62;102316.97;5005265;28;97224;-66
2022/04/28 02:45:24;;;;;;;13.65;8.77;;;;;;;14.65;43.64;102317.19;5003363;28;98953;-67
2022/04/28 02:47:50;;;;;;;18.95;9.23;;;;;;;14.77;42.81;102317.72;5004736;28;97337;-66
2022/04/28 02:50:17;;;;;;;17.45;8.98;;;;;;;14.35;44.69;102322.38;5004471;28;97801;-66
2022/04/28 02:52:43;;;;;;;14.80;8.73;;;;;;;14.30;44.80;102318.97;5006372;28;99076;-66
2022/04/28 02:55:11;;;;;;;17.95;9.48;;;;;;;14.31;45.47;102326.03;5010474;28;99716;-66
2022/04/28 02:57:37;;;;;;;16.77;8.98;;;;;;;14.07;45.56;102321.34;5005084;28;98926;-66
2022/04/28 03:00:05;;;;;;;13.70;8.90;;;;;;;14.35;44.53;102325.03;5005397;28;97458;-66
2022/04/28 03:02:33;;;;;;;17.58;10.00;;;;;;;14.20;44.41;102321.91;5010104;28;97101;-66
2022/04/28 03:05:01;;;;;;;16.05;9.77;;;;;;;13.97;44.52;102322.50;5002982;28;98990;-66
2022/04/28 03:12:58;;;;;;;19.90;8.88;;;;;;;14.45;43.86;102327.47;5002517;28;97139;-73
2022/04/28 03:15:27;;;;;;;14.52;8.80;;;;;;;13.96;44.42;102336.69;5005138;28;99575;-74
2022/04/28 03:17:55;;;;;;;14.73;8.85;;;;;;;13.82;45.07;102338.78;5000772;28;98022;-74
2022/04/28 03:20:21;;;;;;;18.70;9.20;;;;;;;13.83;45.78;102336.13;5008138;28;97135;-73
2022/04/28 03:22:48;;;;;;;16.38;9.55;;;;;;;13.54;45.81;102336.78;5013648;28;96961;-73
2022/04/28 03:25:15;;;;;;;17.65;9.50;;;;;;;13.66;45.86;102332.09;5016979;28;99226;-72
2022/04/28 03:27:42;;;;;;;16.65;9.02;;;;;;;13.57;47.40;102333.19;5016397;28;97779;-73
2022/04/28 03:30:10;;;;;;;15.40;9.57;;;;;;;13.38;47.96;102334.50;5015318;28;98653;-73
2022/04/28 03:32:36;;;;;;;17.08;9.15;;;;;;;13.37;47.78;102336.28;5006499;28;97287;-73
2022/04/28 03:35:05;;;;;;;15.07;9.00;;;;;;;13.64;47.21;102340.13;5011231;28;99007;-73
2022/04/28 03:37:31;;;;;;;17.83;9.13;;;;;;;13.65;46.26;102339.22;5003125;28;98848;-73
2022/04/28 03:39:58;;;;;;;17.95;9.18;;;;;;;13.62;46.81;102331.28;4999743;28;98811;-72
2022/04/28 03:42:24;;;;;;;15.43;9.77;;;;;;;13.41;46.58;102337.09;5006174;28;97330;-74
2022/04/28 03:44:51;;;;;;;18.60;10.05;;;;;;;13.56;46.99;102339.41;5004297;28;99601;-74
2022/04/28 03:47:18;;;;;;;16.42;8.98;;;;;;;13.42;46.61;102350.34;5002286;28;99251;-73
2022/04/28 03:49:44;;;;;;;19.67;9.80;;;;;;;13.43;46.56;102351.22;5005941;28;97223;-74
2022/04/28 03:52:12;;;;;;;14.25;8.55;;;;;;;13.50;45.60;102347.50;4998283;28;96861;-73
2022/04/28 03:54:38;;;;;;;14.20;9.00;;;;;;;13.63;45.58;102356.94;5008262;28;98823;-73
2022/04/28 03:57:06;;;;;;;17.85;9.10;;;;;;;13.64;45.58;102360.47;5003390;28;98837;-72
2022/04/28 03:59:33;;;;;;;13.63;8.70;;;;;;;13.61;45.13;102360.53;5006247;28;97225;-72
2022/04/28 04:01:59;;;;;;;14.40;8.95;;;;;;;13.63;45.08;102359.59;5009720;28;97235;-74
2022/04/28 04:04:26;;;;;;;17.90;9.95;;;;;;;13.42;45.16;102362.72;5005773;28;98313;-75
2022/04/28 04:06:52;;;;;;;17.35;8.77;;;;;;;13.90;44.12;102364.28;5008637;28;98217;-74
2022/04/28 04:09:20;;;;;;;14.93;8.40;;;;;;;13.51;44.77;102362.53;5007446;28;96786;-68
2022/04/28 04:11:46;;;;;;;16.95;8.95;;;;;;;13.61;44.57;102366.72;5003229;28;97357;-68
2022/04/28 04:14:13;;;;;;;13.05;8.38;;;;;;;13.47;44.67;102364.38;5001113;28;99248;-67
2022/04/28 04:16:39;;;;;;;24.15;9.18;;;;;;;13.43;44.67;102362.72;5007768;28;100704;-67
2022/04/28 04:19:06;;;;;;;23.20;9.10;;;;;;;13.70;43.89;102366.53;5006609;28;96978;-67
2022/04/28 04:21:32;;;;;;;15.30;8.80;;;;;;;13.62;44.20;102363.16;5006339;28;96879;-74
2022/04/28 04:23:59;;;;;;;16.42;8.07;;;;;;;13.80;43.53;102370.72;5007557;28;99413;-72
2022/04/28 04:26:27;;;;;;;14.27;8.48;;;;;;;13.65;44.67;102368.44;5003948;28;99470;-73
2022/04/28 04:28:54;;;;;;;19.30;8.68;;;;;;;13.76;43.72;102381.44;5001330;28;97108;-73
2022/04/28 04:34:04;;;;;;;14.73;8.95;;;;;;;14.05;43.31;102384.28;5010102;28;97324;-72
2022/04/28 04:36:31;;;;;;;19.92;8.73;;;;;;;14.13;43.00;102389.41;5000185;28;97123;-71
2022/04/28 04:38:57;;;;;;;12.02;8.32;;;;;;;14.15;42.92;102390.28;5007402;28;96768;-73
2022/04/28 04:41:24;;;;;;;19.95;9.60;;;;;;;14.01;43.28;102387.94;5003187;28;96820;-73
2022/04/28 04:43:51;;;;;;;17.23;9.20;;;;;;;14.18;42.61;102391.06;5001726;28;98561;-67
2022/04/28 04:46:18;;;;;;;16.20;8.55;;;;;;;14.03;42.55;102386.13;5000577;28;99296;-66
2022/04/28 04:48:45;;;;;;;15.00;9.90;;;;;;;14.23;42.40;102388.31;5004116;28;96677;-66
2022/04/28 04:51:11;;;;;;;17.85;9.52;;;;;;;14.25;42.57;102391.78;5004854;28;97866;-67
2022/04/28 04:53:37;;;;;;;23.80;13.13;;;;;;;14.16;42.69;102398.22;5000819;28;99024;-67
2022/04/28 04:56:05;;;;;;;17.58;11.05;;;;;;;14.42;42.77;102397.59;5002813;28;99892;-67
2022/04/28 04:58:31;;;;;;;15.43;8.30;;;;;;;14.21;43.26;102406.94;5004576;28;96849;-65
2022/04/28 05:00:59;;;;;;;15.02;9.40;;;;;;;14.62;42.08;102405.94;4999660;28;96906;-65
2022/04/28 05:03:25;;;;;;;15.35;8.90;;;;;;;14.90;41.01;102413.19;5001599;28;99020;-66
2022/04/28 05:05:53;;;;;;;16.10;8.68;;;;;;;14.88;40.97;102404.38;5000460;28;98857;-67
2022/04/28 05:08:19;;;;;;;17.23;8.82;;;;;;;14.93;40.89;102410.44;5003139;28;97791;-67
2022/04/28 05:10:45;;;;;;;16.98;8.57;;;;;;;15.36;39.75;102405.63;4999529;28;97688;-66
2022/04/28 05:13:12;;;;;;;15.50;9.32;;;;;;;14.85;40.92;102407.09;5002031;28;97645;-67
2022/04/28 05:15:39;;;;;;;17.60;8.90;;;;;;;14.92;40.40;102420.22;5001726;28;98779;-67
2022/04/28 05:18:06;;;;;;;16.83;9.55;;;;;;;15.12;39.75;102409.88;4995157;28;97074;-66
2022/04/28 05:20:33;;;;;;;28.20;9.65;;;;;;;14.96;40.26;102413.03;5003367;28;96857;-66
2022/04/28 05:22:59;;;;;;;15.85;8.70;;;;;;;15.27;39.36;102413.91;4998938;28;100637;-68
2022/04/28 05:25:26;;;;;;;21.80;9.38;;;;;;;15.52;38.59;102414.97;5002202;28;99238;-68
2022/04/28 05:27:52;;;;;;;20.20;8.77;;;;;;;15.49;39.30;102414.19;5004006;28;97055;-74
2022/04/28 05:30:19;;;;;;;19.45;9.48;;;;;;;15.46;39.41;102420.44;5003251;28;96911;-73
2022/04/28 05:32:46;;;;;;;16.88;8.85;;;;;;;15.54;38.79;102423.81;5000266;28;97819;-74
2022/04/28 05:35:14;;;;;;;16.25;9.00;;;;;;;14.91;39.59;102426.44;5003225;28;97521;-73
2022/04/28 05:37:41;;;;;;;19.83;9.65;;;;;;;15.48;39.12;102423.97;5001941;28;98821;-66
2022/04/28 05:40:09;;;;;;;17.42;8.90;;;;;;;15.32;38.92;102427.97;5002159;28;97617;-66
2022/04/28 05:48:05;;;;;;;23.90;9.38;;;;;;;15.33;39.53;102431.50;5005253;28;97346;-67
2022/04/28 05:50:33;;;;;;;15.73;9.13;;;;;;;15.33;39.33;102429.72;5007291;28;96835;-66
2022/04/28 05:53:00;;;;;;;17.70;8.82;;;;;;;15.15;39.53;102435.56;5001445;28;102338;-73
2022/04/28 05:55:27;;;;;;;16.17;9.20;;;;;;;15.17;39.20;102441.69;5000762;28;100220;-72
2022/04/28 05:57:53;;;;;;;15.70;9.82;;;;;;;14.95;40.13;102438.78;4999419;28;97128;-67
2022/04/28 06:00:21;;;;;;;14.75;9.07;;;;;;;15.21;39.83;102445.16;4999992;28;98133;-67
2022/04/28 06:02:48;;;;;;;14.65;10.20;;;;;;;15.32;39.34;102440.41;5006713;28;98036;-73
2022/04/28 06:05:15;;;;;;;19.50;8.90;;;;;;;15.73;38.73;102441.91;5009866;28;101555;-73
2022/04/28 06:07:43;;;;;;;17.17;9.43;;;;;;;16.17;38.25;102446.72;5009336;28;98820;-73
2022/04/28 06:10:10;;;;;;;17.55;10.52;;;;;;;16.35;37.98;102446.13;5011104;28;97085;-72
2022/04/28 06:12:36;;;;;;;18.10;9.95;;;;;;;16.55;37.39;102456.13;5006552;28;99257;-67
2022/04/28 06:15:03;;;;;;;17.67;9.30;;;;;;;16.35;37.89;102456.78;5006668;28;98020;-74
2022/04/28 06:17:30;;;;;;;22.27;10.85;;;;;;;16.64;37.17;102458.53;5001723;28;97286;-74
2022/04/28 06:19:56;;;;;;;15.40;9.38;;;;;;;16.77;36.79;102452.78;5009960;28;97413;-73
2022/04/28 06:22:23;;;;;;;17.33;9.55;;;;;;;16.45;37.40;102461.84;5003760;28;99410;-74
2022/04/28 06:24:52;;;;;;;13.18;9.52;;;;;;;16.39;37.91;102454.91;5009063;28;101349;-75
2022/04/28 06:27:19;;;;;;;20.05;10.18;;;;;;;16.42;37.78;102456.59;5003516;28;97364;-75
2022/04/28 06:29:45;;;;;;;17.83;9.35;;;;;;;16.68;37.36;102462.84;4998935;28;97300;-76
2022/04/28 06:32:12;;;;;;;16.75;10.15;;;;;;;17.03;37.02;102452.75;4999205;28;99259;-74
2022/04/28 06:34:39;;;;;;;20.75;10.52;;;;;;;16.67;37.69;102462.91;5000240;28;97726;-73
2022/04/28 06:37:06;;;;;;;24.77;10.45;;;;;;;16.84;37.44;102463.19;4998935;28;97769;-76
2022/04/28 06:39:32;;;;;;;43.13;12.60;;;;;;;16.74;37.33;102462.63;4999997;28;98789;-75
2022/04/28 06:42:00;;;;;;;38.60;11.52;;;;;;;16.76;37.65;102465.25;4996471;28;98675;-74
2022/04/28 06:44:27;;;;;;;24.30;10.60;;;;;;;16.14;38.89;102468.16;5001014;28;98755;-74
2022/04/28 06:46:53;;;;;;;18.23;10.25;;;;;;;16.72;37.72;102466.28;5002625;28;96845;-76
2022/04/28 06:49:20;;;;;;;18.23;10.05;;;;;;;16.46;37.72;102474.25;5003123;28;98785;-74
2022/04/28 06:51:46;;;;;;;22.05;10.95;;;;;;;16.85;37.17;102466.75;5002761;28;99325;-73
2022/04/28 06:54:13;;;;;;;32.97;11.30;;;;;;;16.87;37.64;102467.56;5007035;28;101108;-75
2022/04/28 06:56:40;;;;;;;32.80;11.55;;;;;;;17.07;37.07;102476.59;4999345;28;97789;-75
2022/04/28 06:59:08;;;;;;;21.38;10.63;;;;;;;17.24;36.79;102469.81;5003009;28;97206;-76
2022/04/28 07:01:34;;;;;;;31.25;14.30;;;;;;;17.90;35.96;102478.03;5000942;28;99516;-74
2022/04/28 07:04:01;;;;;;;21.48;10.52;;;;;;;17.37;36.50;102472.00;4998534;28;98972;-73
2022/04/28 07:06:28;;;;;;;83.93;14.25;;;;;;;17.57;35.96;102465.03;4999488;28;98356;-73
2022/04/28 07:08:54;;;;;;;22.92;10.10;;;;;;;17.82;35.47;102464.06;5004315;28;98879;-74
2022/04/28 07:11:24;;;;;;;17.98;9.50;;;;;;;17.94;35.50;102468.06;5003934;28;99025;-74
2022/04/28 07:13:51;;;;;;;33.13;9.95;;;;;;;18.12;35.04;102475.34;4999834;28;98162;-74
2022/04/28 07:16:19;;;;;;;23.60;11.23;;;;;;;18.45;34.93;102475.81;5003414;28;98472;-73
2022/04/28 07:18:45;;;;;;;22.67;8.90;;;;;;;18.59;33.74;102476.16;5000711;28;99241;-74
2022/04/28 07:21:12;;;;;;;21.98;9.65;;;;;;;17.60;35.29;102470.25;4998807;28;98958;-74
2022/04/28 07:23:38;;;;;;;16.90;9.60;;;;;;;18.55;33.91;102484.34;5000406;28;99144;-73
2022/04/28 07:26:05;;;;;;;19.77;8.75;;;;;;;18.43;34.27;102476.81;5002353;28;96861;-73
2022/04/28 07:28:31;;;;;;;16.95;7.38;;;;;;;17.61;34.54;102475.56;5002122;28;96885;-74
2022/04/28 07:30:58;;;;;;;12.45;7.70;;;;;;;18.61;33.30;102482.31;5004585;28;98045;-73
2022/04/28 07:33:26;;;;;;;13.13;7.55;;;;;;;18.66;33.68;102482.09;5005721;28;99482;-73
2022/04/28 07:35:52;;;;;;;17.15;7.95;;;;;;;18.55;34.29;102489.69;5006230;28;100881;-72
2022/04/28 07:38:19;;;;;;;21.80;8.10;;;;;;;18.43;34.37;102491.06;4998397;28;97701;-71
2022/04/28 07:40:45;;;;;;;18.05;9.10;;;;;;;18.24;34.35;102482.06;5000099;28;100185;-73
2022/04/28 07:43:12;;;;;;;20.38;9.07;;;;;;;18.56;33.76;102489.66;5004714;28;102205;-73
2022/04/28 07:45:39;;;;;;;23.88;8.70;;;;;;;18.44;34.40;102484.78;5000360;28;97330;-73
2022/04/28 07:48:06;;;;;;;20.27;7.22;;;;;;;18.35;34.16;102489.63;5006367;28;97387;-73
2022/04/28 07:50:34;;;;;;;12.48;6.53;;;;;;;18.55;33.39;102487.00;5005478;28;99311;-74
2022/04/28 07:53:01;;;;;;;17.90;6.55;;;;;;;18.78;33.02;102492.31;5019703;28;101548;-73
2022/04/28 07:55:27;;;;;;;20.88;8.52;;;;;;;18.35;33.63;102487.84;5012501;28;98290;-73
2022/04/28 07:57:54;;;;;;;23.30;10.20;;;;;;;18.49;33.75;102488.16;5008336;28;97501;-72
2022/04/28 08:00:20;;;;;;;23.42;6.15;;;;;;;18.65;33.36;102486.59;4999356;28;100172;-74
2022/04/28 08:02:47;;;;;;;28.55;5.85;;;;;;;19.13;32.35;102484.56;4991413;28;99226;-75
2022/04/28 08:05:15;;;;;;;27.42;5.75;;;;;;;18.73;33.21;102483.59;4998754;28;98220;-74
2022/04/28 08:07:44;;;;;;;13.50;5.07;;;;;;;19.43;31.92;102480.50;5004409;28;97222;-73
2022/04/28 08:10:12;;;;;;;20.08;7.07;;;;;;;19.70;31.31;102487.34;4992540;28;98920;-73
2022/04/28 08:12:38;;;;;;;17.05;7.00;;;;;;;19.47;31.55;102485.72;5004329;28;99310;-72
2022/04/28 08:15:06;;;;;;;20.90;6.75;;;;;;;19.80;31.35;102483.31;4997630;28;97175;-72
2022/04/28 08:17:32;;;;;;;14.18;4.63;;;;;;;20.20;30.61;102484.09;4995124;28;96998;-72
2022/04/28 08:19:58;;;;;;;16.58;6.60;;;;;;;20.24;31.05;102488.34;4997946;28;99354;-73
2022/04/28 08:22:25;;;;;;;18.40;5.95;;;;;;;20.09;30.94;102487.28;4997996;28;97743;-75
2022/04/28 08:24:53;;;;;;;17.92;5.95;;;;;;;19.93;31.33;102478.22;4997248;28;98836;-73
2022/04/28 08:27:24;;;;;;;15.50;5.72;;;;;;;20.09;30.92;102483.72;4997090;28;97689;-73
2022/04/28 08:29:51;;;;;;;21.95;6.70;;;;;;;20.77;29.93;102477.69;5001685;28;101444;-73
2022/04/28 08:32:17;;;;;;;15.23;5.10;;;;;;;20.19;30.45;102485.91;4996479;28;99811;-74
2022/04/28 08:34:44;;;;;;;13.55;5.43;;;;;;;20.40;30.04;102483.16;5000829;28;96861;-75
2022/04/28 08:37:10;;;;;;;14.73;6.05;;;;;;;19.63;31.48;102488.56;4996634;28;98834;-71
2022/04/28 08:39:37;;;;;;;21.35;7.13;;;;;;;19.27;31.34;102492.88;4996044;28;97960;-72
2022/04/28 08:42:05;;;;;;;10.98;6.50;;;;;;;18.49;32.47;102490.81;4998127;28;98931;-72
2022/04/28 08:44:32;;;;;;;12.43;5.55;;;;;;;18.84;31.93;102481.31;4999605;28;97226;-72
2022/04/28 08:47:00;;;;;;;10.98;6.28;;;;;;;19.22;31.03;102494.91;4996095;28;97256;-71
2022/04/28 08:49:30;;;;;;;14.13;6.35;;;;;;;19.38;30.88;102490.56;4994402;28;98931;-71
2022/04/28 08:51:58;;;;;;;14.45;5.65;;;;;;;20.23;29.80;102495.53;4995309;28;98877;-70
2022/04/28 08:54:27;;;;;;;14.80;6.15;;;;;;;19.27;31.16;102490.19;4999203;28;97042;-70
2022/04/28 08:56:55;;;;;;;16.83;6.35;;;;;;;19.65;30.74;102483.13;4998008;28;97383;-72
2022/04/28 08:59:24;;;;;;;10.70;6.28;;;;;;;18.91;31.42;102487.28;4997401;28;98412;-71
2022/04/28 09:01:51;;;;;;;15.27;6.30;;;;;;;18.62;31.56;102497.44;4999327;28;98796;-71
2022/04/28 09:04:18;;;;;;;14.05;6.43;;;;;;;19.08;31.56;102490.13;4994818;28;98755;-72
2022/04/28 09:06:49;;;;;;;26.33;6.53;;;;;;;20.07;29.96;102486.50;4993491;28;97400;-69
2022/04/28 09:09:17;;;;;;;19.98;6.00;;;;;;;19.61;30.19;102479.72;5001377;28;97422;-68
2022/04/28 09:11:44;;;;;;;13.85;6.10;;;;;;;20.38;29.44;102480.53;5005988;28;99462;-69
2022/04/28 09:14:13;;;;;;;16.52;5.90;;;;;;;20.73;28.92;102488.66;5001186;28;99997;-67
2022/04/28 09:16:43;;;;;;;13.15;5.90;;;;;;;19.69;29.98;102484.75;4998427;28;96996;-68
2022/04/28 09:19:12;;;;;;;12.07;5.20;;;;;;;20.48;28.76;102489.88;5004758;28;99334;-68
2022/04/28 09:21:39;;;;;;;12.48;6.13;;;;;;;21.15;27.88;102489.13;5000848;28;99004;-68
2022/04/28 09:24:05;;;;;;;8.00;5.68;;;;;;;21.02;27.82;102494.28;4994168;28;98182;-68
2022/04/28 09:26:33;;;;;;;9.23;5.43;;;;;;;19.43;29.96;102500.16;4999394;28;97693;-69
2022/04/28 09:29:02;;;;;;;12.35;5.65;;;;;;;20.37;28.98;102491.34;5004178;28;99439;-67
2022/04/28 09:31:30;;;;;;;30.33;6.10;;;;;;;20.15;29.08;102483.44;5008470;28;98181;-68
2022/04/28 09:34:05;;;;;;;14.52;5.43;;;;;;;20.92;27.66;102489.47;5000492;28;98578;-71
2022/04/28 09:36:31;;;;;;;15.48;5.65;;;;;;;21.59;26.94;102481.44;5001411;28;97493;-72
2022/04/28 09:38:58;;;;;;;12.38;6.22;;;;;;;20.08;28.96;102488.25;5011419;28;99347;-71
2022/04/28 09:44:12;;;;;;;9.98;5.63;;;;;;;19.17;30.86;102488.84;5005060;28;96913;-70
2022/04/28 09:46:41;;;;;;;12.20;5.35;;;;;;;19.66;29.66;102479.50;5000072;28;97797;-72
2022/04/28 09:49:11;;;;;;;14.27;6.03;;;;;;;19.49;29.49;102486.50;5005372;28;97997;-75
2022/04/28 09:51:39;;;;;;;14.07;5.60;;;;;;;20.24;28.76;102491.91;4999194;28;97528;-72
2022/04/28 09:54:09;;;;;;;10.05;5.47;;;;;;;20.93;27.62;102477.78;5001065;28;98723;-71
2022/04/28 09:56:37;;;;;;;7.45;5.10;;;;;;;20.73;27.44;102475.22;5004925;28;97469;-70
2022/04/28 09:59:05;;;;;;;15.35;4.82;;;;;;;20.68;27.59;102479.00;5002799;28;101451;-71
2022/04/28 10:01:35;;;;;;;41.35;5.63;;;;;;;19.33;30.35;102484.56;5008653;28;99370;-70
2022/04/28 10:04:02;;;;;;;19.05;5.68;;;;;;;19.74;30.20;102480.03;4998433;28;98485;-73
2022/04/28 10:06:34;;;;;;;11.50;4.95;;;;;;;20.29;29.64;102484.50;5003944;28;97710;-71
2022/04/28 10:09:04;;;;;;;13.00;4.60;;;;;;;20.45;29.61;102487.34;4997914;28;100312;-71
2022/04/28 10:11:32;;;;;;;14.45;5.38;;;;;;;20.37;29.28;102484.16;5002145;28;98872;-72
2022/04/28 10:14:00;;;;;;;10.70;4.75;;;;;;;20.72;28.69;102490.47;5002080;28;96854;-71
2022/04/28 10:16:27;;;;;;;13.35;4.90;;;;;;;20.43;29.23;102474.94;5001081;28;97111;-73
2022/04/28 10:19:00;;;;;;;13.57;5.13;;;;;;;20.32;29.15;102482.63;5000943;28;99129;-72
2022/04/28 10:21:33;;;;;;;11.90;5.28;;;;;;;21.53;27.59;102480.91;5010286;28;99020;-70
2022/04/28 10:32:53;;;;;;;11.50;4.78;;;;;;;19.87;28.62;102482.06;4996822;28;97010;-70
2022/04/28 10:35:40;;;;;;;10.20;5.05;;;;;;;20.40;28.12;102485.84;5004407;28;99244;-70
2022/04/28 10:38:19;;;;;;;12.02;5.20;;;;;;;20.95;27.30;102486.59;5003121;28;96846;-70
2022/04/28 10:40:54;;;;;;;9.82;4.85;;;;;;;20.65;27.32;102492.59;5008255;28;101611;-70
2022/04/28 10:43:24;;;;;;;9.75;4.72;;;;;;;20.04;27.42;102491.13;4997246;28;99167;-70
2022/04/28 10:45:51;;;;;;;8.13;4.20;;;;;;;20.38;27.17;102493.09;5002957;28;97736;-72
2022/04/28 10:48:32;;;;;;;12.55;4.53;;;;;;;20.76;26.17;102489.38;5000030;28;98781;-71
2022/04/28 10:51:11;;;;;;;9.02;3.80;;;;;;;21.07;26.18;102481.47;5007804;28;97756;-71
2022/04/28 10:54:02;;;;;;;8.48;4.03;;;;;;;21.24;25.50;102479.75;5000164;28;98888;-71
2022/04/28 10:56:30;;;;;;;9.48;3.88;;;;;;;20.70;26.33;102484.31;5000489;28;98036;-69
2022/04/28 10:58:59;;;;;;;8.65;3.97;;;;;;;20.42;26.06;102481.25;4997589;28;98620;-70
2022/04/28 11:01:27;;;;;;;9.77;4.50;;;;;;;20.57;26.63;102485.88;5000226;28;97771;-70
2022/04/28 11:03:56;;;;;;;10.38;5.05;;;;;;;20.61;27.42;102484.78;4997614;28;99064;-71
2022/04/28 11:06:27;;;;;;;27.23;5.30;;;;;;;20.42;28.02;102474.06;5001193;28;97052;-70
2022/04/28 11:08:55;;;;;;;13.68;4.40;;;;;;;21.00;27.73;102482.72;4999716;28;97191;-70
2022/04/28 11:11:28;;;;;;;28.45;4.38;;;;;;;20.23;27.31;102475.88;5002867;28;99160;-70
2022/04/28 11:13:57;;;;;;;11.15;4.53;;;;;;;20.17;26.98;102478.84;5011553;28;98847;-72
2022/04/28 11:16:25;;;;;;;10.45;4.07;;;;;;;20.36;27.19;102466.31;4999719;28;97587;-72
2022/04/28 11:18:52;;;;;;;18.25;4.00;;;;;;;21.17;26.33;102478.34;4999000;28;98146;-72
2022/04/28 11:21:19;;;;;;;13.18;4.30;;;;;;;22.01;24.53;102477.34;5003251;28;101217;-70
2022/04/28 11:23:47;;;;;;;9.45;4.07;;;;;;;22.39;24.35;102469.75;5000801;28;98890;-72
2022/04/28 11:26:14;;;;;;;14.80;4.10;;;;;;;21.31;25.85;102471.28;4997063;28;97511;-70
2022/04/28 11:28:43;;;;;;;11.05;3.92;;;;;;;21.45;26.11;102474.09;5001779;28;98625;-72
2022/04/28 11:31:16;;;;;;;16.23;4.60;;;;;;;21.24;26.54;102466.31;4998817;28;99444;-70
2022/04/28 11:33:45;;;;;;;7.90;4.20;;;;;;;20.43;27.66;102474.94;4997406;28;98913;-70
2022/04/28 11:36:20;;;;;;;8.13;4.40;;;;;;;20.22;27.55;102469.63;5010674;28;97583;-70
2022/04/28 11:38:52;;;;;;;9.85;4.55;;;;;;;20.76;26.41;102473.25;5002198;28;97337;-70
2022/04/28 11:41:24;;;;;;;8.90;3.90;;;;;;;20.95;26.55;102467.78;5007671;28;101130;-70
2022/04/28 11:43:52;;;;;;;10.70;4.07;;;;;;;21.01;26.09;102462.97;4998807;28;98744;-70
2022/04/28 11:46:19;;;;;;;7.28;3.67;;;;;;;21.76;25.31;102454.47;4999811;28;98374;-71
2022/04/28 11:48:45;;;;;;;6.95;3.92;;;;;;;21.21;25.99;102455.69;5006226;28;97389;-70